EDDC/DRS METAR and TAF weather

Enter ICAO airport designator
Station Type Date Time Source
EDDC METAR 2020/11/28 20:20 UTC NOAA

EDDC 282020Z 33001KT 9999 BKN036 02/M01 Q1025 NOSIG


Station Type Date Time Source
EDDC Decoded METAR 2020/11/28 20:20 UTC NOAA

Dresden-Klotzsche, Germany (EDDC) 51-08N 013-45E 232M
Nov 28, 2020 - 03:20 PM EST / 2020.11.28 2020 UTC
Wind: from the NNW (330 degrees) at 1 MPH (1 KT):0
Visibility: greater than 7 mile(s):0
Sky conditions: mostly cloudy
Temperature: 35 F (2 C)
Dew Point: 30 F (-1 C)
Relative Humidity: 80%
Pressure (altimeter): 30.27 in. Hg (1025 hPa)
ob: EDDC 282020Z 33001KT 9999 BKN036 02/M01 Q1025 NOSIG
cycle: 20

Station Type Date Time Source
EDDC TAF 2020/11/28 18:27 UTC NOAA

TAF EDDC 281700Z 2818/2918 VRB02KT 9999 FEW012 BKN030
TEMPO 2822/2906 BKN008 PROB30
TEMPO 2902/2909 1000 -RASN BCFG SCT001 BKN002
BECMG 2906/2909 31007KT 3500 BR BKN008
BECMG 2909/2913 8000 SCT008 BKN011 PROB40
TEMPO 2913/2918 3500 -SHSNRA BKN005 BKN015TCU

Example: see airport list